sensor_id;sensor_type;location;lat;lon;timestamp;pressure;altitude;pressure_sealevel;temperature;humidity
20115;BME280;10218;42.874;25.320;2023-04-27T00:01:33;96804.34;;;10.17;100.00
20115;BME280;10218;42.874;25.320;2023-04-27T00:04:02;96811.88;;;10.36;100.00
20115;BME280;10218;42.874;25.320;2023-04-27T00:06:30;96805.56;;;9.75;100.00
20115;BME280;10218;42.874;25.320;2023-04-27T00:08:58;96803.62;;;9.69;100.00
20115;BME280;10218;42.874;25.320;2023-04-27T00:11:25;96805.63;;;9.98;100.00
20115;BME280;10218;42.874;25.320;2023-04-27T00:13:52;96806.34;;;10.15;100.00
20115;BME280;10218;42.874;25.320;2023-04-27T00:16:19;96803.44;;;10.47;100.00
20115;BME280;10218;42.874;25.320;2023-04-27T00:18:46;96807.69;;;10.11;100.00
20115;BME280;10218;42.874;25.320;2023-04-27T00:21:13;96805.94;;;10.49;100.00
20115;BME280;10218;42.874;25.320;2023-04-27T00:23:40;96811.38;;;10.10;100.00
20115;BME280;10218;42.874;25.320;2023-04-27T00:26:08;96815.31;;;10.22;100.00
20115;BME280;10218;42.874;25.320;2023-04-27T00:28:37;96820.91;;;10.35;100.00
20115;BME280;10218;42.874;25.320;2023-04-27T00:31:04;96819.38;;;10.10;100.00
20115;BME280;10218;42.874;25.320;2023-04-27T00:33:31;96822.56;;;10.36;100.00
20115;BME280;10218;42.874;25.320;2023-04-27T00:35:59;96805.69;;;9.90;100.00
20115;BME280;10218;42.874;25.320;2023-04-27T00:38:28;96823.69;;;10.11;100.00
20115;BME280;10218;42.874;25.320;2023-04-27T00:41:04;96830.19;;;10.16;100.00
20115;BME280;10218;42.874;25.320;2023-04-27T00:43:39;96822.41;;;10.07;100.00
20115;BME280;10218;42.874;25.320;2023-04-27T00:46:07;96835.41;;;10.10;100.00
20115;BME280;10218;42.874;25.320;2023-04-27T00:48:34;96828.22;;;10.10;100.00
20115;BME280;10218;42.874;25.320;2023-04-27T00:51:02;96834.75;;;10.08;100.00
20115;BME280;10218;42.874;25.320;2023-04-27T00:53:30;96838.34;;;10.23;100.00
20115;BME280;10218;42.874;25.320;2023-04-27T00:55:58;96844.25;;;10.10;100.00
20115;BME280;10218;42.874;25.320;2023-04-27T00:58:27;96833.69;;;10.17;100.00
20115;BME280;10218;42.874;25.320;2023-04-27T01:00:54;96849.44;;;10.04;100.00
20115;BME280;10218;42.874;25.320;2023-04-27T01:03:22;96851.22;;;10.11;100.00
20115;BME280;10218;42.874;25.320;2023-04-27T01:05:49;96850.06;;;10.14;100.00
20115;BME280;10218;42.874;25.320;2023-04-27T01:08:16;96855.88;;;9.86;100.00
20115;BME280;10218;42.874;25.320;2023-04-27T01:10:43;96835.19;;;9.88;100.00
20115;BME280;10218;42.874;25.320;2023-04-27T01:13:10;96853.37;;;10.16;100.00
20115;BME280;10218;42.874;25.320;2023-04-27T01:15:37;96857.88;;;10.15;100.00
20115;BME280;10218;42.874;25.320;2023-04-27T01:18:08;96872.56;;;10.11;100.00
20115;BME280;10218;42.874;25.320;2023-04-27T01:20:35;96871.66;;;9.96;100.00
20115;BME280;10218;42.874;25.320;2023-04-27T01:23:04;96871.38;;;10.22;100.00
20115;BME280;10218;42.874;25.320;2023-04-27T01:25:32;96870.97;;;9.71;100.00
20115;BME280;10218;42.874;25.320;2023-04-27T01:28:01;96881.81;;;10.01;100.00
20115;BME280;10218;42.874;25.320;2023-04-27T01:30:28;96878.22;;;9.85;100.00
20115;BME280;10218;42.874;25.320;2023-04-27T01:32:57;96881.25;;;9.82;100.00
20115;BME280;10218;42.874;25.320;2023-04-27T01:35:24;96876.06;;;10.20;100.00
20115;BME280;10218;42.874;25.320;2023-04-27T01:37:53;96873.31;;;10.05;100.00
20115;BME280;10218;42.874;25.320;2023-04-27T01:40:20;96884.91;;;10.12;100.00
20115;BME280;10218;42.874;25.320;2023-04-27T01:42:47;96882.16;;;9.98;100.00
20115;BME280;10218;42.874;25.320;2023-04-27T01:45:14;96886.50;;;9.68;100.00
20115;BME280;10218;42.874;25.320;2023-04-27T01:47:41;96887.59;;;9.81;100.00
20115;BME280;10218;42.874;25.320;2023-04-27T01:50:10;96889.50;;;9.96;100.00
20115;BME280;10218;42.874;25.320;2023-04-27T01:52:38;96870.97;;;10.02;100.00
20115;BME280;10218;42.874;25.320;2023-04-27T01:55:05;96892.22;;;9.87;100.00
20115;BME280;10218;42.874;25.320;2023-04-27T01:57:32;96882.59;;;9.78;100.00
20115;BME280;10218;42.874;25.320;2023-04-27T02:00:00;96882.97;;;9.67;100.00
20115;BME280;10218;42.874;25.320;2023-04-27T02:02:42;96897.09;;;9.76;100.00
20115;BME280;10218;42.874;25.320;2023-04-27T02:05:09;96895.25;;;9.84;100.00
20115;BME280;10218;42.874;25.320;2023-04-27T02:07:36;96889.50;;;9.96;100.00
20115;BME280;10218;42.874;25.320;2023-04-27T02:10:04;96897.94;;;9.84;100.00
20115;BME280;10218;42.874;25.320;2023-04-27T02:12:31;96903.38;;;9.52;100.00
20115;BME280;10218;42.874;25.320;2023-04-27T02:14:58;96898.53;;;9.56;100.00
20115;BME280;10218;42.874;25.320;2023-04-27T02:17:25;96906.78;;;9.77;100.00
20115;BME280;10218;42.874;25.320;2023-04-27T02:19:53;96903.94;;;9.39;100.00
20115;BME280;10218;42.874;25.320;2023-04-27T02:22:19;96903.81;;;9.17;100.00
20115;BME280;10218;42.874;25.320;2023-04-27T02:24:47;96903.25;;;9.84;100.00
20115;BME280;10218;42.874;25.320;2023-04-27T02:27:14;96903.56;;;9.90;100.00
20115;BME280;10218;42.874;25.320;2023-04-27T02:29:41;96909.91;;;9.88;100.00
20115;BME280;10218;42.874;25.320;2023-04-27T02:32:09;96908.03;;;9.97;100.00
20115;BME280;10218;42.874;25.320;2023-04-27T02:34:37;96902.50;;;9.68;100.00
20115;BME280;10218;42.874;25.320;2023-04-27T02:37:04;96908.31;;;9.71;100.00
20115;BME280;10218;42.874;25.320;2023-04-27T02:39:31;96903.53;;;9.98;100.00
20115;BME280;10218;42.874;25.320;2023-04-27T02:41:58;96910.84;;;9.65;100.00
20115;BME280;10218;42.874;25.320;2023-04-27T02:44:25;96914.41;;;9.49;100.00
20115;BME280;10218;42.874;25.320;2023-04-27T02:46:52;96916.13;;;10.12;100.00
20115;BME280;10218;42.874;25.320;2023-04-27T02:49:20;96917.25;;;9.86;100.00
20115;BME280;10218;42.874;25.320;2023-04-27T02:51:48;96918.44;;;10.23;100.00
20115;BME280;10218;42.874;25.320;2023-04-27T02:54:15;96917.47;;;10.08;100.00
20115;BME280;10218;42.874;25.320;2023-04-27T02:56:43;96921.25;;;9.82;100.00
20115;BME280;10218;42.874;25.320;2023-04-27T02:59:10;96915.09;;;9.82;100.00
20115;BME280;10218;42.874;25.320;2023-04-27T03:01:37;96922.31;;;9.73;100.00
20115;BME280;10218;42.874;25.320;2023-04-27T03:04:04;96929.00;;;9.61;100.00
20115;BME280;10218;42.874;25.320;2023-04-27T03:06:31;96920.13;;;9.77;100.00
20115;BME280;10218;42.874;25.320;2023-04-27T03:08:58;96926.56;;;9.91;100.00
20115;BME280;10218;42.874;25.320;2023-04-27T03:11:26;96934.69;;;9.50;100.00
20115;BME280;10218;42.874;25.320;2023-04-27T03:13:53;96933.72;;;9.51;100.00
20115;BME280;10218;42.874;25.320;2023-04-27T03:16:20;96943.06;;;9.47;100.00
20115;BME280;10218;42.874;25.320;2023-04-27T03:18:48;96927.00;;;9.63;100.00
20115;BME280;10218;42.874;25.320;2023-04-27T03:21:14;96933.47;;;9.77;100.00
20115;BME280;10218;42.874;25.320;2023-04-27T03:23:42;96933.19;;;9.56;100.00
20115;BME280;10218;42.874;25.320;2023-04-27T03:26:11;96944.00;;;9.62;100.00
20115;BME280;10218;42.874;25.320;2023-04-27T03:28:40;96951.63;;;9.18;100.00
20115;BME280;10218;42.874;25.320;2023-04-27T03:31:09;96952.69;;;9.56;100.00
20115;BME280;10218;42.874;25.320;2023-04-27T03:33:37;96959.41;;;9.44;100.00
20115;BME280;10218;42.874;25.320;2023-04-27T03:36:05;96964.12;;;9.01;100.00
20115;BME280;10218;42.874;25.320;2023-04-27T03:38:33;96970.41;;;9.33;100.00
20115;BME280;10218;42.874;25.320;2023-04-27T03:41:01;96975.59;;;9.26;100.00
20115;BME280;10218;42.874;25.320;2023-04-27T03:43:28;96970.41;;;9.25;100.00
20115;BME280;10218;42.874;25.320;2023-04-27T03:45:55;96969.09;;;9.21;100.00
20115;BME280;10218;42.874;25.320;2023-04-27T03:48:23;96974.41;;;9.21;100.00
20115;BME280;10218;42.874;25.320;2023-04-27T03:50:50;96973.94;;;9.01;100.00
20115;BME280;10218;42.874;25.320;2023-04-27T03:53:17;96967.09;;;8.74;100.00
20115;BME280;10218;42.874;25.320;2023-04-27T03:55:46;96970.59;;;8.91;100.00
20115;BME280;10218;42.874;25.320;2023-04-27T03:58:13;96972.78;;;8.87;100.00
20115;BME280;10218;42.874;25.320;2023-04-27T04:00:42;96970.78;;;8.97;100.00
20115;BME280;10218;42.874;25.320;2023-04-27T04:03:10;96974.94;;;9.00;100.00
20115;BME280;10218;42.874;25.320;2023-04-27T04:05:37;96976.25;;;9.04;100.00
20115;BME280;10218;42.874;25.320;2023-04-27T04:08:04;96976.41;;;9.43;100.00
20115;BME280;10218;42.874;25.320;2023-04-27T04:10:32;96977.88;;;9.54;100.00
20115;BME280;10218;42.874;25.320;2023-04-27T04:12:59;96977.75;;;9.23;100.00
20115;BME280;10218;42.874;25.320;2023-04-27T04:15:26;96981.06;;;9.25;100.00
20115;BME280;10218;42.874;25.320;2023-04-27T04:17:53;96992.75;;;8.99;100.00
20115;BME280;10218;42.874;25.320;2023-04-27T04:20:20;96972.59;;;8.97;100.00
20115;BME280;10218;42.874;25.320;2023-04-27T04:22:48;96994.25;;;9.10;100.00
20115;BME280;10218;42.874;25.320;2023-04-27T04:25:15;96994.75;;;8.81;100.00
20115;BME280;10218;42.874;25.320;2023-04-27T04:27:42;96989.75;;;9.27;100.00
20115;BME280;10218;42.874;25.320;2023-04-27T04:30:10;96999.44;;;9.04;100.00
20115;BME280;10218;42.874;25.320;2023-04-27T04:32:37;97003.41;;;9.08;100.00
20115;BME280;10218;42.874;25.320;2023-04-27T04:35:05;97006.91;;;9.08;100.00
20115;BME280;10218;42.874;25.320;2023-04-27T04:37:33;97014.72;;;9.10;100.00
20115;BME280;10218;42.874;25.320;2023-04-27T04:40:06;96976.78;;;8.83;100.00
20115;BME280;10218;42.874;25.320;2023-04-27T04:42:36;97005.72;;;9.59;100.00
20115;BME280;10218;42.874;25.320;2023-04-27T04:45:04;97010.91;;;9.36;100.00
20115;BME280;10218;42.874;25.320;2023-04-27T04:47:33;97014.38;;;9.45;100.00
20115;BME280;10218;42.874;25.320;2023-04-27T04:50:00;97014.72;;;9.26;100.00
20115;BME280;10218;42.874;25.320;2023-04-27T04:52:28;97021.72;;;9.27;100.00
20115;BME280;10218;42.874;25.320;2023-04-27T04:54:55;97012.41;;;9.39;100.00
20115;BME280;10218;42.874;25.320;2023-04-27T04:57:22;97018.88;;;9.36;100.00
20115;BME280;10218;42.874;25.320;2023-04-27T04:59:50;97019.06;;;9.35;100.00
20115;BME280;10218;42.874;25.320;2023-04-27T05:02:16;97025.91;;;9.13;100.00
20115;BME280;10218;42.874;25.320;2023-04-27T05:04:43;97025.72;;;9.15;100.00
20115;BME280;10218;42.874;25.320;2023-04-27T05:07:11;97033.19;;;8.63;100.00
20115;BME280;10218;42.874;25.320;2023-04-27T05:09:40;97034.03;;;8.79;100.00
20115;BME280;10218;42.874;25.320;2023-04-27T05:12:07;97039.09;;;8.40;100.00
20115;BME280;10218;42.874;25.320;2023-04-27T05:14:34;97036.25;;;9.24;100.00
20115;BME280;10218;42.874;25.320;2023-04-27T05:17:01;97037.38;;;8.97;100.00
20115;BME280;10218;42.874;25.320;2023-04-27T05:19:29;97035.06;;;9.11;100.00
20115;BME280;10218;42.874;25.320;2023-04-27T05:21:57;97037.06;;;9.17;100.00
20115;BME280;10218;42.874;25.320;2023-04-27T05:24:25;97044.06;;;9.26;100.00
20115;BME280;10218;42.874;25.320;2023-04-27T05:26:52;97041.72;;;9.07;100.00
20115;BME280;10218;42.874;25.320;2023-04-27T05:29:20;97045.16;;;8.67;100.00
20115;BME280;10218;42.874;25.320;2023-04-27T05:31:47;97046.25;;;9.14;100.00
20115;BME280;10218;42.874;25.320;2023-04-27T05:34:15;97040.03;;;8.89;100.00
20115;BME280;10218;42.874;25.320;2023-04-27T05:36:42;97053.22;;;9.07;100.00
20115;BME280;10218;42.874;25.320;2023-04-27T05:39:09;97055.69;;;8.92;100.00
20115;BME280;10218;42.874;25.320;2023-04-27T05:41:36;97053.34;;;8.73;100.00
20115;BME280;10218;42.874;25.320;2023-04-27T05:44:04;97053.00;;;8.68;100.00
20115;BME280;10218;42.874;25.320;2023-04-27T05:46:31;97052.31;;;8.58;100.00
20115;BME280;10218;42.874;25.320;2023-04-27T05:48:59;97058.84;;;8.88;100.00
20115;BME280;10218;42.874;25.320;2023-04-27T05:51:26;97059.06;;;9.27;100.00
20115;BME280;10218;42.874;25.320;2023-04-27T05:53:54;97061.22;;;9.39;100.00
20115;BME280;10218;42.874;25.320;2023-04-27T05:56:21;97056.06;;;9.22;100.00
20115;BME280;10218;42.874;25.320;2023-04-27T05:58:48;97057.38;;;9.42;100.00
20115;BME280;10218;42.874;25.320;2023-04-27T06:01:15;97063.22;;;9.37;100.00
20115;BME280;10218;42.874;25.320;2023-04-27T06:03:43;97062.03;;;8.83;100.00
20115;BME280;10218;42.874;25.320;2023-04-27T06:06:10;97065.72;;;8.98;100.00
20115;BME280;10218;42.874;25.320;2023-04-27T06:08:37;97068.72;;;9.04;100.00
20115;BME280;10218;42.874;25.320;2023-04-27T06:11:05;97063.38;;;9.68;100.00
20115;BME280;10218;42.874;25.320;2023-04-27T06:13:32;97061.38;;;9.22;100.00
20115;BME280;10218;42.874;25.320;2023-04-27T06:16:00;97056.38;;;9.59;100.00
20115;BME280;10218;42.874;25.320;2023-04-27T06:18:28;97063.22;;;9.29;100.00
20115;BME280;10218;42.874;25.320;2023-04-27T06:20:59;97062.06;;;9.24;100.00
20115;BME280;10218;42.874;25.320;2023-04-27T06:23:27;97059.56;;;9.14;100.00
20115;BME280;10218;42.874;25.320;2023-04-27T06:25:54;97051.06;;;9.19;100.00
20115;BME280;10218;42.874;25.320;2023-04-27T06:28:22;97068.72;;;9.12;100.00
20115;BME280;10218;42.874;25.320;2023-04-27T06:30:49;97068.03;;;9.58;100.00
20115;BME280;10218;42.874;25.320;2023-04-27T06:33:16;97055.34;;;9.76;100.00
20115;BME280;10218;42.874;25.320;2023-04-27T06:35:43;97075.22;;;9.33;100.00
20115;BME280;10218;42.874;25.320;2023-04-27T06:38:13;97069.38;;;9.62;100.00
20115;BME280;10218;42.874;25.320;2023-04-27T06:40:40;97072.03;;;9.46;100.00
20115;BME280;10218;42.874;25.320;2023-04-27T06:43:07;97075.72;;;9.69;100.00
20115;BME280;10218;42.874;25.320;2023-04-27T06:45:34;97071.88;;;9.48;100.00
20115;BME280;10218;42.874;25.320;2023-04-27T06:48:02;97071.56;;;9.59;100.00
20115;BME280;10218;42.874;25.320;2023-04-27T06:50:29;97076.38;;;9.47;100.00
20115;BME280;10218;42.874;25.320;2023-04-27T06:52:56;97075.34;;;9.72;100.00
20115;BME280;10218;42.874;25.320;2023-04-27T06:55:23;97077.19;;;9.80;100.00
20115;BME280;10218;42.874;25.320;2023-04-27T06:57:50;97078.19;;;9.79;100.00
20115;BME280;10218;42.874;25.320;2023-04-27T07:00:18;97073.31;;;9.99;100.00
20115;BME280;10218;42.874;25.320;2023-04-27T07:02:45;97071.12;;;10.02;100.00
20115;BME280;10218;42.874;25.320;2023-04-27T07:05:12;97082.84;;;9.77;100.00
20115;BME280;10218;42.874;25.320;2023-04-27T07:07:40;97067.31;;;9.97;100.00
20115;BME280;10218;42.874;25.320;2023-04-27T07:10:07;97074.53;;;9.72;100.00
20115;BME280;10218;42.874;25.320;2023-04-27T07:12:38;97082.37;;;9.41;100.00
20115;BME280;10218;42.874;25.320;2023-04-27T07:15:06;97075.69;;;9.77;100.00
20115;BME280;10218;42.874;25.320;2023-04-27T07:17:33;97079.34;;;9.84;100.00
20115;BME280;10218;42.874;25.320;2023-04-27T07:20:01;97081.87;;;9.70;100.00
20115;BME280;10218;42.874;25.320;2023-04-27T07:22:30;97074.00;;;9.76;100.00
20115;BME280;10218;42.874;25.320;2023-04-27T07:24:57;97076.69;;;9.84;100.00
20115;BME280;10218;42.874;25.320;2023-04-27T07:27:24;97086.97;;;9.96;100.00
20115;BME280;10218;42.874;25.320;2023-04-27T07:29:52;97081.28;;;10.15;100.00
20115;BME280;10218;42.874;25.320;2023-04-27T07:32:19;97089.00;;;9.94;100.00
20115;BME280;10218;42.874;25.320;2023-04-27T07:34:47;97085.19;;;9.88;100.00
20115;BME280;10218;42.874;25.320;2023-04-27T07:37:18;97074.28;;;10.14;100.00
20115;BME280;10218;42.874;25.320;2023-04-27T07:39:47;97081.50;;;10.52;100.00
20115;BME280;10218;42.874;25.320;2023-04-27T07:42:14;97081.59;;;10.36;100.00
20115;BME280;10218;42.874;25.320;2023-04-27T07:44:41;97077.59;;;10.71;100.00
20115;BME280;10218;42.874;25.320;2023-04-27T07:47:09;97082.69;;;10.42;100.00
20115;BME280;10218;42.874;25.320;2023-04-27T07:49:36;97086.19;;;10.50;100.00
20115;BME280;10218;42.874;25.320;2023-04-27T07:52:04;97079.81;;;10.59;100.00
20115;BME280;10218;42.874;25.320;2023-04-27T07:54:31;97074.37;;;11.29;100.00
20115;BME280;10218;42.874;25.320;2023-04-27T07:56:58;97080.34;;;11.77;100.00
20115;BME280;10218;42.874;25.320;2023-04-27T07:59:28;97084.97;;;11.60;100.00
20115;BME280;10218;42.874;25.320;2023-04-27T08:01:55;97073.94;;;11.40;100.00
20115;BME280;10218;42.874;25.320;2023-04-27T08:04:25;97083.94;;;11.46;100.00
20115;BME280;10218;42.874;25.320;2023-04-27T08:06:52;97085.34;;;11.34;100.00
20115;BME280;10218;42.874;25.320;2023-04-27T08:09:20;97081.69;;;11.35;100.00
20115;BME280;10218;42.874;25.320;2023-04-27T08:11:47;97082.97;;;12.14;100.00
20115;BME280;10218;42.874;25.320;2023-04-27T08:14:14;97078.72;;;12.64;100.00
20115;BME280;10218;42.874;25.320;2023-04-27T08:16:42;97085.84;;;12.57;100.00
20115;BME280;10218;42.874;25.320;2023-04-27T08:19:10;97087.59;;;12.50;100.00
20115;BME280;10218;42.874;25.320;2023-04-27T08:21:37;97092.41;;;12.10;100.00
20115;BME280;10218;42.874;25.320;2023-04-27T08:24:05;97081.41;;;12.64;100.00
20115;BME280;10218;42.874;25.320;2023-04-27T08:26:33;97076.31;;;13.19;100.00
20115;BME280;10218;42.874;25.320;2023-04-27T08:29:01;97074.50;;;13.69;100.00
20115;BME280;10218;42.874;25.320;2023-04-27T08:31:32;97064.03;;;12.60;100.00
20115;BME280;10218;42.874;25.320;2023-04-27T08:33:59;97083.59;;;13.25;100.00
20115;BME280;10218;42.874;25.320;2023-04-27T08:36:26;97082.63;;;12.47;100.00
20115;BME280;10218;42.874;25.320;2023-04-27T08:38:54;97075.53;;;13.47;100.00
20115;BME280;10218;42.874;25.320;2023-04-27T08:41:22;97077.47;;;13.53;100.00
20115;BME280;10218;42.874;25.320;2023-04-27T08:43:50;97075.16;;;13.99;100.00
20115;BME280;10218;42.874;25.320;2023-04-27T08:46:21;97076.03;;;13.78;100.00
20115;BME280;10218;42.874;25.320;2023-04-27T08:48:50;97079.09;;;12.61;100.00
20115;BME280;10218;42.874;25.320;2023-04-27T08:51:18;97073.84;;;13.03;100.00
20115;BME280;10218;42.874;25.320;2023-04-27T08:53:51;97069.56;;;13.73;100.00
20115;BME280;10218;42.874;25.320;2023-04-27T08:56:20;97065.34;;;12.49;100.00
20115;BME280;10218;42.874;25.320;2023-04-27T08:58:49;97079.66;;;12.27;100.00
20115;BME280;10218;42.874;25.320;2023-04-27T09:01:17;97048.94;;;13.09;100.00
20115;BME280;10218;42.874;25.320;2023-04-27T09:03:45;97052.37;;;13.67;100.00
20115;BME280;10218;42.874;25.320;2023-04-27T09:06:13;97055.62;;;13.56;100.00
20115;BME280;10218;42.874;25.320;2023-04-27T09:08:49;97049.53;;;12.90;100.00
20115;BME280;10218;42.874;25.320;2023-04-27T09:11:31;97040.47;;;13.48;100.00
20115;BME280;10218;42.874;25.320;2023-04-27T09:14:16;97041.41;;;12.48;100.00
20115;BME280;10218;42.874;25.320;2023-04-27T09:16:44;97041.91;;;13.08;100.00
20115;BME280;10218;42.874;25.320;2023-04-27T09:19:11;97042.41;;;12.61;100.00
20115;BME280;10218;42.874;25.320;2023-04-27T09:21:49;97044.34;;;13.03;100.00
20115;BME280;10218;42.874;25.320;2023-04-27T09:24:17;97042.53;;;14.02;100.00
20115;BME280;10218;42.874;25.320;2023-04-27T09:26:48;97049.63;;;14.44;99.63
20115;BME280;10218;42.874;25.320;2023-04-27T09:29:16;97033.50;;;14.09;94.49
20115;BME280;10218;42.874;25.320;2023-04-27T09:31:43;97035.94;;;14.04;100.00
20115;BME280;10218;42.874;25.320;2023-04-27T09:34:10;97043.53;;;14.29;100.00
20115;BME280;10218;42.874;25.320;2023-04-27T09:36:38;97039.84;;;12.89;100.00
20115;BME280;10218;42.874;25.320;2023-04-27T09:39:06;97038.97;;;14.57;100.00
20115;BME280;10218;42.874;25.320;2023-04-27T09:41:33;97036.03;;;13.62;100.00
20115;BME280;10218;42.874;25.320;2023-04-27T09:44:01;97030.72;;;14.31;99.30
20115;BME280;10218;42.874;25.320;2023-04-27T09:46:32;97039.09;;;13.80;100.00
20115;BME280;10218;42.874;25.320;2023-04-27T09:49:00;97030.75;;;13.26;100.00
20115;BME280;10218;42.874;25.320;2023-04-27T09:51:30;97031.56;;;13.69;100.00
20115;BME280;10218;42.874;25.320;2023-04-27T09:53:59;97028.91;;;14.38;100.00
20115;BME280;10218;42.874;25.320;2023-04-27T09:56:48;97030.19;;;13.80;98.60
20115;BME280;10218;42.874;25.320;2023-04-27T10:01:59;97022.19;;;13.86;95.63
20115;BME280;10218;42.874;25.320;2023-04-27T10:07:29;97021.47;;;13.07;90.88
20115;BME280;10218;42.874;25.320;2023-04-27T10:10:01;97023.78;;;13.10;89.60
20115;BME280;10218;42.874;25.320;2023-04-27T10:12:33;97022.69;;;13.47;98.69
20115;BME280;10218;42.874;25.320;2023-04-27T10:15:13;97016.44;;;13.89;98.82
20115;BME280;10218;42.874;25.320;2023-04-27T10:17:48;97015.81;;;14.22;91.22
20115;BME280;10218;42.874;25.320;2023-04-27T10:20:16;97014.41;;;12.85;96.92
20115;BME280;10218;42.874;25.320;2023-04-27T10:22:44;97023.78;;;13.32;100.00
20115;BME280;10218;42.874;25.320;2023-04-27T10:27:39;97025.12;;;13.91;92.24
20115;BME280;10218;42.874;25.320;2023-04-27T10:30:17;97025.41;;;13.75;100.00
20115;BME280;10218;42.874;25.320;2023-04-27T10:32:55;97029.41;;;13.58;93.22
20115;BME280;10218;42.874;25.320;2023-04-27T10:38:13;97033.22;;;13.70;86.74
20115;BME280;10218;42.874;25.320;2023-04-27T10:40:56;97034.69;;;13.51;89.85
20115;BME280;10218;42.874;25.320;2023-04-27T10:43:25;97027.84;;;13.98;87.69
20115;BME280;10218;42.874;25.320;2023-04-27T10:45:53;97031.22;;;13.30;92.96
20115;BME280;10218;42.874;25.320;2023-04-27T10:48:21;97038.44;;;13.29;96.91
20115;BME280;10218;42.874;25.320;2023-04-27T10:50:52;97022.00;;;13.17;96.44
20115;BME280;10218;42.874;25.320;2023-04-27T10:53:19;97033.44;;;13.05;100.00
20115;BME280;10218;42.874;25.320;2023-04-27T10:55:46;97020.94;;;13.33;100.00
20115;BME280;10218;42.874;25.320;2023-04-27T10:58:14;97032.81;;;12.88;100.00
20115;BME280;10218;42.874;25.320;2023-04-27T11:00:41;97032.44;;;12.91;100.00
20115;BME280;10218;42.874;25.320;2023-04-27T11:03:20;97034.78;;;12.29;100.00
20115;BME280;10218;42.874;25.320;2023-04-27T11:05:57;97026.88;;;12.57;100.00
20115;BME280;10218;42.874;25.320;2023-04-27T11:08:25;97031.31;;;12.50;100.00
20115;BME280;10218;42.874;25.320;2023-04-27T11:10:52;97029.31;;;12.52;100.00
20115;BME280;10218;42.874;25.320;2023-04-27T11:13:22;97026.97;;;12.63;100.00
20115;BME280;10218;42.874;25.320;2023-04-27T11:15:54;97034.00;;;12.50;100.00
20115;BME280;10218;42.874;25.320;2023-04-27T11:18:24;97031.59;;;12.55;100.00
20115;BME280;10218;42.874;25.320;2023-04-27T11:20:54;97034.13;;;12.41;100.00
20115;BME280;10218;42.874;25.320;2023-04-27T11:23:31;97031.28;;;12.28;100.00
20115;BME280;10218;42.874;25.320;2023-04-27T11:28:36;97026.22;;;12.55;100.00
20115;BME280;10218;42.874;25.320;2023-04-27T11:31:03;97031.72;;;12.47;100.00
20115;BME280;10218;42.874;25.320;2023-04-27T11:33:30;97031.31;;;12.50;100.00
20115;BME280;10218;42.874;25.320;2023-04-27T11:35:58;97037.50;;;12.65;100.00
20115;BME280;10218;42.874;25.320;2023-04-27T11:38:32;97049.72;;;11.94;100.00
20115;BME280;10218;42.874;25.320;2023-04-27T11:41:04;97046.69;;;12.26;100.00
20115;BME280;10218;42.874;25.320;2023-04-27T11:43:32;97044.03;;;11.97;100.00
20115;BME280;10218;42.874;25.320;2023-04-27T11:46:03;97051.22;;;12.11;100.00
20115;BME280;10218;42.874;25.320;2023-04-27T11:48:31;97035.53;;;12.08;100.00
20115;BME280;10218;42.874;25.320;2023-04-27T11:50:58;97052.50;;;12.00;100.00
20115;BME280;10218;42.874;25.320;2023-04-27T11:53:38;97040.22;;;12.21;100.00
20115;BME280;10218;42.874;25.320;2023-04-27T11:56:06;97055.16;;;11.86;100.00
20115;BME280;10218;42.874;25.320;2023-04-27T11:58:38;97049.47;;;12.04;100.00
20115;BME280;10218;42.874;25.320;2023-04-27T12:01:06;97056.12;;;12.08;100.00
20115;BME280;10218;42.874;25.320;2023-04-27T12:03:33;97045.66;;;12.57;100.00
20115;BME280;10218;42.874;25.320;2023-04-27T12:06:01;97055.47;;;12.20;100.00
20115;BME280;10218;42.874;25.320;2023-04-27T12:08:31;97039.13;;;12.15;100.00
20115;BME280;10218;42.874;25.320;2023-04-27T12:10:58;97053.63;;;12.21;100.00
20115;BME280;10218;42.874;25.320;2023-04-27T12:13:25;97055.56;;;12.12;100.00
20115;BME280;10218;42.874;25.320;2023-04-27T12:15:52;97058.97;;;12.06;100.00
20115;BME280;10218;42.874;25.320;2023-04-27T12:18:20;97052.88;;;12.12;100.00
20115;BME280;10218;42.874;25.320;2023-04-27T12:20:47;97055.41;;;12.14;100.00
20115;BME280;10218;42.874;25.320;2023-04-27T12:23:14;97054.91;;;12.10;100.00
20115;BME280;10218;42.874;25.320;2023-04-27T12:25:41;97048.44;;;12.49;100.00
20115;BME280;10218;42.874;25.320;2023-04-27T12:28:09;97050.06;;;12.79;100.00
20115;BME280;10218;42.874;25.320;2023-04-27T12:30:37;97048.22;;;13.01;100.00
20115;BME280;10218;42.874;25.320;2023-04-27T12:33:05;97048.69;;;12.68;100.00
20115;BME280;10218;42.874;25.320;2023-04-27T12:35:36;97049.69;;;13.18;100.00
20115;BME280;10218;42.874;25.320;2023-04-27T12:38:04;97048.09;;;13.23;100.00
20115;BME280;10218;42.874;25.320;2023-04-27T12:40:32;97041.91;;;13.08;100.00
20115;BME280;10218;42.874;25.320;2023-04-27T12:42:59;97045.41;;;13.45;100.00
20115;BME280;10218;42.874;25.320;2023-04-27T12:45:27;97036.16;;;13.75;100.00
20115;BME280;10218;42.874;25.320;2023-04-27T12:47:54;97035.78;;;13.57;100.00
20115;BME280;10218;42.874;25.320;2023-04-27T12:50:28;97040.06;;;14.00;100.00
20115;BME280;10218;42.874;25.320;2023-04-27T12:52:56;97035.63;;;14.21;100.00
20115;BME280;10218;42.874;25.320;2023-04-27T12:55:23;97023.00;;;14.49;100.00
20115;BME280;10218;42.874;25.320;2023-04-27T12:57:57;97033.53;;;14.98;100.00
20115;BME280;10218;42.874;25.320;2023-04-27T13:00:25;97029.34;;;14.89;100.00
20115;BME280;10218;42.874;25.320;2023-04-27T13:02:52;97026.34;;;15.18;100.00
20115;BME280;10218;42.874;25.320;2023-04-27T13:05:19;97029.00;;;15.12;97.85